createdAt,value
2023-04-02T00:00:37.100Z,6.91
2023-04-02T00:03:07.082Z,6.95
2023-04-02T00:05:46.417Z,7.04
2023-04-02T00:08:23.889Z,6.92
2023-04-02T00:10:52.462Z,7.00
2023-04-02T00:13:36.532Z,7.23
2023-04-02T00:16:07.931Z,7.24
2023-04-02T00:18:40.308Z,7.22
2023-04-02T00:21:20.477Z,7.34
2023-04-02T00:23:47.484Z,7.47
2023-04-02T00:26:34.341Z,7.54
2023-04-02T00:29:03.574Z,7.44
2023-04-02T00:31:31.477Z,7.44
2023-04-02T00:34:03.464Z,7.44
2023-04-02T00:36:33.212Z,7.54
2023-04-02T00:39:04.442Z,7.59
2023-04-02T00:41:32.718Z,7.68
2023-04-02T00:44:00.949Z,7.68
2023-04-02T00:46:39.169Z,7.49
2023-04-02T00:49:10.590Z,7.61
2023-04-02T00:51:44.739Z,7.52
2023-04-02T00:54:13.195Z,7.46
2023-04-02T00:56:45.111Z,7.44
2023-04-02T00:59:26.569Z,7.63
2023-04-02T01:02:16.795Z,7.59
2023-04-02T01:05:02.659Z,7.68
2023-04-02T01:07:53.956Z,7.78
2023-04-02T01:10:51.379Z,7.83
2023-04-02T01:13:28.993Z,7.83
2023-04-02T01:16:04.961Z,7.84
2023-04-02T01:19:20.173Z,7.96
2023-04-02T01:21:47.057Z,7.93
2023-04-02T01:24:14.643Z,7.92
2023-04-02T01:26:58.638Z,7.99
2023-04-02T01:29:40.408Z,7.94
2023-04-02T01:32:12.046Z,7.89
2023-04-02T01:34:41.429Z,7.98
2023-04-02T01:37:14.342Z,7.89
2023-04-02T01:40:06.350Z,8.05
2023-04-02T01:42:52.078Z,8.06
2023-04-02T01:45:21.407Z,7.91
2023-04-02T01:47:49.982Z,7.99
2023-04-02T01:50:20.139Z,7.97
2023-04-02T01:52:50.586Z,7.93
2023-04-02T01:55:24.777Z,7.85
2023-04-02T01:57:54.491Z,7.92
2023-04-02T02:00:21.483Z,7.81
2023-04-02T02:02:52.157Z,7.88
2023-04-02T02:05:22.458Z,7.97
2023-04-02T02:07:52.096Z,7.92
2023-04-02T02:10:25.998Z,7.99
2023-04-02T02:12:53.053Z,8.02
2023-04-02T02:15:22.887Z,8.05
2023-04-02T02:17:50.512Z,8.10
2023-04-02T02:20:18.217Z,8.05
2023-04-02T02:22:48.558Z,7.89
2023-04-02T02:25:19.567Z,7.94
2023-04-02T02:27:59.497Z,7.87
2023-04-02T02:30:49.413Z,7.75
2023-04-02T02:33:26.920Z,7.76
2023-04-02T02:36:16.658Z,7.83
2023-04-02T02:38:49.595Z,7.81
2023-04-02T02:41:39.586Z,7.85
2023-04-02T02:44:11.859Z,7.89
2023-04-02T02:46:54.668Z,7.88
2023-04-02T02:49:28.101Z,7.80
2023-04-02T02:52:21.192Z,7.94
2023-04-02T02:55:16.004Z,7.81
2023-04-02T02:58:26.581Z,7.99
2023-04-02T03:01:14.081Z,7.89
2023-04-02T03:03:43.933Z,8.03
2023-04-02T03:06:15.895Z,7.97
2023-04-02T03:08:54.412Z,8.05
2023-04-02T03:11:35.089Z,8.06
2023-04-02T03:14:36.418Z,8.04
2023-04-02T03:17:17.731Z,7.99
2023-04-02T03:20:01.228Z,8.20
2023-04-02T03:22:34.872Z,8.05
2023-04-02T03:25:26.790Z,8.12
2023-04-02T03:28:02.393Z,8.03
2023-04-02T03:30:50.869Z,8.12
2023-04-02T03:33:31.957Z,7.79
2023-04-02T03:36:39.172Z,7.69
2023-04-02T03:39:33.320Z,7.64
2023-04-02T03:42:08.024Z,7.73
2023-04-02T03:44:38.325Z,7.75
2023-04-02T03:47:14.617Z,7.76
2023-04-02T03:49:56.006Z,7.90
2023-04-02T03:52:28.629Z,7.87
2023-04-02T03:55:02.051Z,7.94
2023-04-02T03:57:43.819Z,7.95
2023-04-02T04:00:27.317Z,8.01
2023-04-02T04:03:03.269Z,7.96
2023-04-02T04:05:45.056Z,7.80
2023-04-02T04:08:20.952Z,7.82
2023-04-02T04:10:53.128Z,8.01
2023-04-02T04:13:29.271Z,8.14
2023-04-02T04:16:20.309Z,8.01
2023-04-02T04:18:57.040Z,7.99
2023-04-02T04:21:28.700Z,7.96
2023-04-02T04:24:16.730Z,8.03
2023-04-02T04:26:53.220Z,7.86
2023-04-02T04:29:50.408Z,8.15
2023-04-02T04:32:26.853Z,8.19
2023-04-02T04:35:02.696Z,8.21
2023-04-02T04:37:39.553Z,8.04
2023-04-02T04:40:19.929Z,8.15
2023-04-02T04:42:55.044Z,8.30
2023-04-02T04:45:28.840Z,8.58
2023-04-02T04:48:07.157Z,8.73
2023-04-02T04:50:41.497Z,8.63
2023-04-02T04:53:17.431Z,8.96
2023-04-02T04:55:47.070Z,9.13
2023-04-02T04:58:24.706Z,9.30
2023-04-02T05:01:14.375Z,9.47
2023-04-02T05:04:06.072Z,9.75
2023-04-02T05:06:49.683Z,9.61
2023-04-02T05:09:31.897Z,9.76
2023-04-02T05:12:17.848Z,9.97
2023-04-02T05:15:11.970Z,10.42
2023-04-02T05:17:55.873Z,10.37
2023-04-02T05:20:29.708Z,10.41
2023-04-02T05:23:19.078Z,10.53
2023-04-02T05:26:33.916Z,10.71
2023-04-02T05:29:15.485Z,10.41
2023-04-02T05:31:50.892Z,10.45
2023-04-02T05:34:25.793Z,10.68
2023-04-02T05:36:54.499Z,10.75
2023-04-02T05:39:26.630Z,10.75
2023-04-02T05:42:06.997Z,10.85
2023-04-02T05:45:20.621Z,10.85
2023-04-02T05:47:52.348Z,10.59
2023-04-02T05:50:35.594Z,10.96
2023-04-02T05:53:21.452Z,11.05
2023-04-02T05:56:17.935Z,11.28
2023-04-02T05:58:55.107Z,11.19
2023-04-02T06:01:44.541Z,11.28
2023-04-02T06:04:26.907Z,11.15
2023-04-02T06:07:26.645Z,11.55
2023-04-02T06:10:06.754Z,11.56
2023-04-02T06:12:44.995Z,11.34
2023-04-02T06:15:18.736Z,11.46
2023-04-02T06:18:00.159Z,11.79
2023-04-02T06:20:28.397Z,11.69
2023-04-02T06:23:16.504Z,11.90
2023-04-02T06:25:57.757Z,12.08
2023-04-02T06:28:51.075Z,12.43
2023-04-02T06:31:45.168Z,12.33
2023-04-02T06:34:29.078Z,12.64
2023-04-02T06:37:32.076Z,12.82
2023-04-02T06:40:37.207Z,12.33
2023-04-02T06:43:27.809Z,12.25
2023-04-02T06:46:08.065Z,11.79
2023-04-02T06:49:02.417Z,11.59
2023-04-02T06:51:33.589Z,11.81
2023-04-02T06:54:02.786Z,11.68
2023-04-02T06:56:38.628Z,11.55
2023-04-02T06:59:06.691Z,11.45
2023-04-02T07:01:40.282Z,11.38
2023-04-02T07:04:08.997Z,11.41
2023-04-02T07:06:44.553Z,11.27
2023-04-02T07:09:14.016Z,12.00
2023-04-02T07:11:47.269Z,12.18
2023-04-02T07:14:15.017Z,12.38
2023-04-02T07:16:43.441Z,12.08
2023-04-02T07:19:19.201Z,12.31
2023-04-02T07:21:47.087Z,12.43
2023-04-02T07:24:14.424Z,12.44
2023-04-02T07:26:41.404Z,12.95
2023-04-02T07:29:13.773Z,13.16
2023-04-02T07:31:40.806Z,13.04
2023-04-02T07:34:08.321Z,13.06
2023-04-02T07:36:35.233Z,12.78
2023-04-02T07:39:02.612Z,13.09
2023-04-02T07:41:29.650Z,13.16
2023-04-02T07:43:56.632Z,13.04
2023-04-02T07:46:26.218Z,12.87
2023-04-02T07:48:53.235Z,13.45
2023-04-02T07:51:26.121Z,13.39
2023-04-02T07:53:53.609Z,13.73
2023-04-02T07:56:20.833Z,13.48
2023-04-02T07:58:48.472Z,13.41
2023-04-02T08:01:21.096Z,13.26
2023-04-02T08:03:48.117Z,13.36
2023-04-02T08:06:15.336Z,13.72
2023-04-02T08:08:42.845Z,14.06
2023-04-02T08:11:10.723Z,14.14
2023-04-02T08:13:38.188Z,13.80
2023-04-02T08:16:06.907Z,13.85
2023-04-02T08:18:34.578Z,14.16
2023-04-02T08:21:01.654Z,14.17
2023-04-02T08:23:28.625Z,13.97
2023-04-02T08:25:55.893Z,14.04
2023-04-02T08:28:22.976Z,14.22
2023-04-02T08:30:50.585Z,14.25
2023-04-02T08:33:17.850Z,14.56
2023-04-02T08:35:46.291Z,14.23
2023-04-02T08:38:19.116Z,14.39
2023-04-02T08:40:50.733Z,14.13
2023-04-02T08:43:33.282Z,14.61
2023-04-02T08:46:18.458Z,14.49
2023-04-02T08:48:55.923Z,14.39
2023-04-02T08:51:27.123Z,14.77
2023-04-02T08:53:56.707Z,14.73
2023-04-02T08:56:34.089Z,14.52
2023-04-02T08:59:09.366Z,14.77
2023-04-02T09:01:41.961Z,14.65
2023-04-02T09:04:19.086Z,14.68
2023-04-02T09:06:47.337Z,14.71
2023-04-02T09:09:16.551Z,15.03
2023-04-02T09:11:57.308Z,15.22
2023-04-02T09:14:42.247Z,15.54
2023-04-02T09:17:27.752Z,15.22
2023-04-02T09:20:03.997Z,15.09
2023-04-02T09:22:33.532Z,15.28
2023-04-02T09:25:03.955Z,15.14
2023-04-02T09:27:36.063Z,14.83
2023-04-02T09:30:21.749Z,15.12
2023-04-02T09:32:48.873Z,15.08
2023-04-02T09:35:27.290Z,14.17
2023-04-02T09:38:20.804Z,14.08
2023-04-02T09:41:02.003Z,14.65
2023-04-02T09:43:37.752Z,14.57
2023-04-02T09:46:13.974Z,14.98
2023-04-02T09:48:45.389Z,15.09
2023-04-02T09:51:14.541Z,15.27
2023-04-02T09:53:47.046Z,15.39
2023-04-02T09:56:22.831Z,15.07
2023-04-02T09:59:19.009Z,15.21
2023-04-02T10:01:47.244Z,15.25
2023-04-02T10:04:40.190Z,15.55
2023-04-02T10:07:07.230Z,15.63
2023-04-02T10:09:36.888Z,15.71
2023-04-02T10:12:13.672Z,15.90
2023-04-02T10:14:44.824Z,15.60
2023-04-02T10:17:23.415Z,15.55
2023-04-02T10:20:01.635Z,15.32
2023-04-02T10:22:28.973Z,15.78
2023-04-02T10:24:58.173Z,15.74
2023-04-02T10:27:47.056Z,15.84
2023-04-02T10:30:16.568Z,15.59
2023-04-02T10:32:43.455Z,15.88
2023-04-02T10:35:35.449Z,16.02
2023-04-02T10:38:11.595Z,16.22
2023-04-02T10:40:47.953Z,16.15
2023-04-02T10:43:47.038Z,16.09
2023-04-02T10:46:25.116Z,16.08
2023-04-02T10:49:16.887Z,16.18
2023-04-02T10:52:05.356Z,16.39
2023-04-02T10:54:38.157Z,16.27
2023-04-02T10:57:39.163Z,15.63
2023-04-02T11:00:12.535Z,15.65
2023-04-02T11:02:56.939Z,15.62
2023-04-02T11:05:40.443Z,16.04
2023-04-02T11:08:27.530Z,16.26
2023-04-02T11:11:05.694Z,16.29
2023-04-02T11:13:56.784Z,16.26
2023-04-02T11:16:24.706Z,16.33
2023-04-02T11:19:16.566Z,16.48
2023-04-02T11:21:58.737Z,16.39
2023-04-02T11:24:30.448Z,16.43
2023-04-02T11:27:20.750Z,16.48
2023-04-02T11:29:53.867Z,16.08
2023-04-02T11:32:20.800Z,16.33
2023-04-02T11:34:56.347Z,16.40
2023-04-02T11:37:39.981Z,15.96
2023-04-02T11:40:13.015Z,16.29
2023-04-02T11:42:45.609Z,15.76
2023-04-02T11:45:21.542Z,15.52
2023-04-02T11:48:00.689Z,15.61
2023-04-02T11:50:32.258Z,15.53
2023-04-02T11:53:03.677Z,15.64
2023-04-02T11:55:32.719Z,15.55
2023-04-02T11:58:11.263Z,15.77
2023-04-02T12:01:06.179Z,15.82
2023-04-02T12:03:57.955Z,15.97
2023-04-02T12:07:06.546Z,16.33
2023-04-02T12:09:49.116Z,16.15
2023-04-02T12:12:25.803Z,15.98
2023-04-02T12:14:57.845Z,16.28
2023-04-02T12:17:34.621Z,16.37
2023-04-02T12:20:07.627Z,16.36
2023-04-02T12:22:39.927Z,16.12
2023-04-02T12:25:37.380Z,16.20
2023-04-02T12:28:10.192Z,16.40
2023-04-02T12:30:41.361Z,16.56
2023-04-02T12:33:35.834Z,16.68
2023-04-02T12:36:05.465Z,16.36
2023-04-02T12:38:43.455Z,16.34
2023-04-02T12:41:30.801Z,16.38
2023-04-02T12:44:02.033Z,16.39
2023-04-02T12:46:31.078Z,16.47
2023-04-02T12:49:30.460Z,16.62
2023-04-02T12:51:58.378Z,16.63
2023-04-02T12:54:25.443Z,16.43
2023-04-02T12:56:52.436Z,16.48
2023-04-02T12:59:34.216Z,16.73
2023-04-02T13:02:03.801Z,16.79
2023-04-02T13:04:30.753Z,16.77
2023-04-02T13:06:57.735Z,16.77
2023-04-02T13:09:41.004Z,16.57
2023-04-02T13:12:25.497Z,16.75
2023-04-02T13:14:57.813Z,16.86
2023-04-02T13:17:44.227Z,17.01
2023-04-02T13:20:34.958Z,16.93
2023-04-02T13:23:25.744Z,16.65
2023-04-02T13:25:53.537Z,16.59
2023-04-02T13:28:20.909Z,16.64
2023-04-02T13:30:48.190Z,16.81
2023-04-02T13:33:15.832Z,16.53
2023-04-02T13:35:43.919Z,16.23
2023-04-02T13:38:10.838Z,16.56
2023-04-02T13:40:38.706Z,16.66
2023-04-02T13:43:07.017Z,16.74
2023-04-02T13:45:39.281Z,16.53
2023-04-02T13:48:06.519Z,16.65
2023-04-02T13:50:35.197Z,16.62
2023-04-02T13:53:09.034Z,16.61
2023-04-02T13:55:42.098Z,16.31
2023-04-02T13:58:10.712Z,16.47
2023-04-02T14:00:37.824Z,16.45
2023-04-02T14:03:25.041Z,16.52
2023-04-02T14:06:26.364Z,16.38
2023-04-02T14:09:02.410Z,16.15
2023-04-02T14:11:41.364Z,16.14
2023-04-02T14:14:39.846Z,16.52
2023-04-02T14:17:28.378Z,16.76
2023-04-02T14:20:04.404Z,16.60
2023-04-02T14:22:57.032Z,16.30
2023-04-02T14:25:35.588Z,16.24
2023-04-02T14:28:19.406Z,15.89
2023-04-02T14:31:07.887Z,15.78
2023-04-02T14:33:55.648Z,15.77
2023-04-02T14:36:22.558Z,15.80
2023-04-02T14:38:57.805Z,15.63
2023-04-02T14:42:03.056Z,15.45
2023-04-02T14:44:36.818Z,15.36
2023-04-02T14:48:08.421Z,15.23
2023-04-02T14:50:40.818Z,15.19
2023-04-02T14:53:15.897Z,15.18
2023-04-02T14:55:44.723Z,15.12
2023-04-02T14:58:19.207Z,15.03
2023-04-02T15:01:03.223Z,14.83
2023-04-02T15:03:37.585Z,14.77
2023-04-02T15:06:11.965Z,14.66
2023-04-02T15:08:48.226Z,14.56
2023-04-02T15:11:27.216Z,14.45
2023-04-02T15:14:04.377Z,14.46
2023-04-02T15:16:31.693Z,14.49
2023-04-02T15:19:03.529Z,14.35
2023-04-02T15:21:55.879Z,14.31
2023-04-02T15:24:51.669Z,14.30
2023-04-02T15:27:33.924Z,14.17
2023-04-02T15:30:20.255Z,14.25
2023-04-02T15:32:47.311Z,14.10
2023-04-02T15:35:33.771Z,14.10
2023-04-02T15:38:12.606Z,13.99
2023-04-02T15:40:59.477Z,14.00
2023-04-02T15:43:31.108Z,13.81
2023-04-02T15:46:35.600Z,13.86
2023-04-02T15:49:28.214Z,13.83
2023-04-02T15:52:08.099Z,13.64
2023-04-02T15:54:45.153Z,13.63
2023-04-02T15:57:24.013Z,13.53
2023-04-02T16:00:01.222Z,13.35
2023-04-02T16:03:18.805Z,13.20
2023-04-02T16:06:09.937Z,13.20
2023-04-02T16:08:59.314Z,13.30
2023-04-02T16:11:26.834Z,13.00
2023-04-02T16:14:24.135Z,13.18
2023-04-02T16:16:54.672Z,12.89
2023-04-02T16:19:33.713Z,12.97
2023-04-02T16:22:16.550Z,12.91
2023-04-02T16:24:43.653Z,12.83
2023-04-02T16:27:34.460Z,12.92
2023-04-02T16:30:22.924Z,12.95
2023-04-02T16:32:55.552Z,12.86
2023-04-02T16:35:56.233Z,12.77
2023-04-02T16:38:58.439Z,12.87
2023-04-02T16:41:55.826Z,12.78
2023-04-02T16:44:34.895Z,12.63
2023-04-02T16:47:30.014Z,12.72
2023-04-02T16:50:34.728Z,12.71
2023-04-02T16:53:20.286Z,12.65
2023-04-02T16:55:50.344Z,12.45
2023-04-02T16:58:28.395Z,12.37
2023-04-02T17:01:14.857Z,12.35
2023-04-02T17:04:02.536Z,12.36
2023-04-02T17:06:47.949Z,12.21
2023-04-02T17:09:22.743Z,12.28
2023-04-02T17:11:55.518Z,12.28
2023-04-02T17:15:01.208Z,12.36
2023-04-02T17:17:47.602Z,12.30
2023-04-02T17:20:23.215Z,12.18
2023-04-02T17:22:51.778Z,12.17
2023-04-02T17:25:33.660Z,12.01
2023-04-02T17:28:02.712Z,12.06
2023-04-02T17:30:43.522Z,12.06
2023-04-02T17:33:16.290Z,12.02
2023-04-02T17:36:01.434Z,11.98
2023-04-02T17:39:08.399Z,11.92
2023-04-02T17:41:53.725Z,11.89
2023-04-02T17:44:31.654Z,11.81
2023-04-02T17:47:14.284Z,11.89
2023-04-02T17:49:59.738Z,11.90
2023-04-02T17:52:55.567Z,11.82
2023-04-02T17:55:53.427Z,11.63
2023-04-02T17:58:29.230Z,11.59
2023-04-02T18:00:56.221Z,11.51
2023-04-02T18:03:38.203Z,11.44
2023-04-02T18:06:16.202Z,11.26
2023-04-02T18:09:00.769Z,10.98
2023-04-02T18:11:52.191Z,10.86
2023-04-02T18:14:19.071Z,10.92
2023-04-02T18:17:30.675Z,11.13
2023-04-02T18:20:15.360Z,10.80
2023-04-02T18:23:21.011Z,10.91
2023-04-02T18:26:25.310Z,10.96
2023-04-02T18:29:21.263Z,10.94
2023-04-02T18:32:17.530Z,10.62
2023-04-02T18:34:59.804Z,10.30
2023-04-02T18:37:33.781Z,10.14
2023-04-02T18:40:16.182Z,10.01
2023-04-02T18:42:48.450Z,9.90
2023-04-02T18:45:28.789Z,9.80
2023-04-02T18:47:58.735Z,9.60
2023-04-02T18:50:38.068Z,9.41
2023-04-02T18:53:14.458Z,9.46
2023-04-02T18:55:48.516Z,9.32
2023-04-02T18:58:23.321Z,9.36
2023-04-02T19:00:51.150Z,9.43
2023-04-02T19:03:32.947Z,9.14
2023-04-02T19:06:12.121Z,8.94
2023-04-02T19:08:58.808Z,8.81
2023-04-02T19:11:27.004Z,8.74
2023-04-02T19:14:07.131Z,8.81
2023-04-02T19:16:46.351Z,8.72
2023-04-02T19:19:26.826Z,8.82
2023-04-02T19:22:11.917Z,8.72
2023-04-02T19:25:00.262Z,8.76
2023-04-02T19:27:30.163Z,8.74
2023-04-02T19:30:28.955Z,8.87
2023-04-02T19:32:59.108Z,8.51
2023-04-02T19:35:36.156Z,8.69
2023-04-02T19:38:22.119Z,8.61
2023-04-02T19:41:04.290Z,8.74
2023-04-02T19:43:31.359Z,8.82
2023-04-02T19:45:59.467Z,8.91
2023-04-02T19:48:30.762Z,9.02
2023-04-02T19:50:57.990Z,8.91
2023-04-02T19:53:24.850Z,8.71
2023-04-02T19:55:51.859Z,8.64
2023-04-02T19:58:32.426Z,8.71
2023-04-02T20:01:00.088Z,8.63
2023-04-02T20:03:27.383Z,8.67
2023-04-02T20:05:54.511Z,8.69
2023-04-02T20:08:21.363Z,8.62
2023-04-02T20:10:48.306Z,8.12
2023-04-02T20:13:15.219Z,8.22
2023-04-02T20:15:42.164Z,8.22
2023-04-02T20:18:09.312Z,8.27
2023-04-02T20:20:37.659Z,8.22
2023-04-02T20:23:05.078Z,8.23
2023-04-02T20:25:32.417Z,8.19
2023-04-02T20:27:59.341Z,8.12
2023-04-02T20:30:26.398Z,7.95
2023-04-02T20:32:53.403Z,8.08
2023-04-02T20:35:20.479Z,8.19
2023-04-02T20:37:47.275Z,8.32
2023-04-02T20:40:14.319Z,8.17
2023-04-02T20:42:41.250Z,8.01
2023-04-02T20:45:09.023Z,7.94
2023-04-02T20:47:35.908Z,7.93
2023-04-02T20:50:02.927Z,8.26
2023-04-02T20:52:29.850Z,8.06
2023-04-02T20:54:56.719Z,7.87
2023-04-02T20:57:23.563Z,7.90
2023-04-02T20:59:50.682Z,7.92
2023-04-02T21:02:17.545Z,7.89
2023-04-02T21:04:44.443Z,7.95
2023-04-02T21:07:11.336Z,8.04
2023-04-02T21:09:38.280Z,8.04
2023-04-02T21:12:05.487Z,8.11
2023-04-02T21:14:32.389Z,8.20
2023-04-02T21:16:59.308Z,8.05
2023-04-02T21:19:26.268Z,8.07
2023-04-02T21:21:55.033Z,7.98
2023-04-02T21:24:21.996Z,7.94
2023-04-02T21:26:50.038Z,7.88
2023-04-02T21:29:17.481Z,7.74
2023-04-02T21:31:44.622Z,7.81
2023-04-02T21:34:16.499Z,7.69
2023-04-02T21:36:45.757Z,7.70
2023-04-02T21:39:20.879Z,7.69
2023-04-02T21:41:49.700Z,7.66
2023-04-02T21:44:18.744Z,7.58
2023-04-02T21:46:46.389Z,7.69
2023-04-02T21:49:16.975Z,7.88
2023-04-02T21:51:45.622Z,7.99
2023-04-02T21:54:12.986Z,7.93
2023-04-02T21:56:43.198Z,7.66
2023-04-02T21:59:12.462Z,7.68
2023-04-02T22:01:42.332Z,7.48
2023-04-02T22:04:15.069Z,7.58
2023-04-02T22:06:42.979Z,7.54
2023-04-02T22:09:15.694Z,7.48
2023-04-02T22:11:50.289Z,7.52
2023-04-02T22:14:17.884Z,7.47
2023-04-02T22:16:44.816Z,7.74
2023-04-02T22:19:14.690Z,7.78
2023-04-02T22:21:42.050Z,7.69
2023-04-02T22:24:13.590Z,7.73
2023-04-02T22:26:41.211Z,7.87
2023-04-02T22:29:08.576Z,7.80
2023-04-02T22:31:35.633Z,7.86
2023-04-02T22:34:03.988Z,7.96
2023-04-02T22:36:31.609Z,7.93
2023-04-02T22:38:59.827Z,7.92
2023-04-02T22:41:28.869Z,7.62
2023-04-02T22:43:56.829Z,7.51
2023-04-02T22:46:25.832Z,7.60
2023-04-02T22:48:53.065Z,7.40
2023-04-02T22:51:21.987Z,7.50
2023-04-02T22:53:49.732Z,7.49
2023-04-02T22:56:19.703Z,7.38
2023-04-02T22:58:46.520Z,7.35
2023-04-02T23:01:15.422Z,7.53
2023-04-02T23:03:43.092Z,7.32
2023-04-02T23:06:12.916Z,7.29
2023-04-02T23:08:40.795Z,7.27
2023-04-02T23:11:09.309Z,7.23
2023-04-02T23:13:37.101Z,7.29
2023-04-02T23:16:06.630Z,7.20
2023-04-02T23:18:38.203Z,7.21
2023-04-02T23:21:05.895Z,7.41
2023-04-02T23:23:33.319Z,7.29
2023-04-02T23:26:10.710Z,7.45
2023-04-02T23:28:39.905Z,7.59
2023-04-02T23:31:09.356Z,7.52
2023-04-02T23:33:36.515Z,7.48
2023-04-02T23:36:08.833Z,7.40
2023-04-02T23:38:36.013Z,7.37
2023-04-02T23:41:03.083Z,7.22
2023-04-02T23:43:30.052Z,6.95
2023-04-02T23:45:57.082Z,6.79
2023-04-02T23:48:24.136Z,6.73
2023-04-02T23:50:51.120Z,7.03
2023-04-02T23:53:18.206Z,6.94
2023-04-02T23:55:45.068Z,6.91
2023-04-02T23:58:11.953Z,6.81
